createdAt,value
2017-12-13T18:43:11.542Z,65.60
2017-12-13T18:45:40.434Z,65.90
2017-12-13T18:48:08.994Z,66.10
2017-12-13T18:50:36.572Z,66.00
2017-12-13T18:53:04.078Z,66.10
2017-12-13T18:55:31.632Z,66.20
2017-12-13T18:57:59.211Z,66.20
2017-12-13T19:00:29.451Z,66.30
2017-12-13T19:02:57.023Z,66.20
2017-12-13T19:05:24.605Z,66.30
2017-12-13T19:07:52.101Z,66.40
2017-12-13T19:10:19.612Z,66.40
2017-12-13T19:12:47.171Z,66.40
2017-12-13T19:15:14.702Z,66.40
2017-12-13T19:17:42.995Z,66.50
2017-12-13T19:20:10.558Z,66.40
2017-12-13T19:22:38.070Z,66.40
2017-12-13T19:25:05.598Z,66.40
2017-12-13T19:27:33.147Z,66.40
2017-12-13T19:30:00.669Z,66.40
2017-12-13T19:32:28.937Z,66.40
2017-12-13T19:34:56.501Z,66.30
2017-12-13T19:37:24.001Z,66.50
2017-12-13T19:39:51.550Z,66.50
2017-12-13T19:42:19.120Z,66.40
2017-12-13T19:44:46.666Z,66.40
2017-12-13T19:47:14.193Z,66.40
2017-12-13T19:49:42.113Z,66.30
2017-12-13T19:52:09.630Z,66.30
2017-12-13T19:54:37.934Z,66.20
2017-12-13T19:57:05.493Z,66.20
2017-12-13T19:59:33.034Z,66.10
2017-12-13T20:02:01.367Z,66.20
2017-12-13T20:04:28.931Z,66.10
2017-12-13T20:06:56.513Z,66.20
2017-12-13T20:09:24.081Z,66.10
2017-12-13T20:11:52.410Z,65.00
2017-12-13T20:14:19.953Z,65.00
2017-12-13T20:16:47.522Z,62.40
2017-12-13T20:19:15.067Z,62.20
2017-12-13T20:21:42.592Z,64.80
2017-12-13T20:24:10.102Z,65.80
2017-12-13T20:26:37.734Z,65.80
2017-12-13T20:29:06.237Z,65.90
2017-12-13T20:31:34.579Z,65.70
2017-12-13T20:34:02.982Z,65.90
2017-12-13T20:36:30.535Z,65.80
2017-12-13T20:38:58.148Z,66.00
2017-12-13T20:41:25.855Z,65.60
2017-12-13T20:43:54.188Z,65.80
2017-12-13T20:46:21.710Z,65.80
2017-12-13T20:48:49.256Z,66.00
2017-12-13T20:51:16.818Z,66.00
2017-12-13T20:53:44.338Z,65.90
2017-12-13T20:56:11.910Z,65.90
2017-12-13T20:58:40.189Z,66.10
2017-12-13T21:01:07.779Z,66.10
2017-12-13T21:03:35.410Z,65.80
2017-12-13T21:06:03.856Z,66.00
2017-12-13T21:08:31.350Z,66.10
2017-12-13T21:10:58.935Z,66.30
2017-12-13T21:13:26.508Z,65.30
2017-12-13T21:15:54.043Z,66.30
2017-12-13T21:18:22.342Z,66.30
2017-12-13T21:20:49.886Z,66.30
2017-12-13T21:23:18.560Z,66.30
2017-12-13T21:25:46.908Z,67.20
2017-12-13T21:28:14.414Z,66.40
2017-12-13T21:30:42.716Z,66.50
2017-12-13T21:33:10.299Z,66.50
2017-12-13T21:35:37.864Z,66.50
2017-12-13T21:38:05.975Z,66.60
2017-12-13T21:40:34.312Z,66.70
2017-12-13T21:43:01.826Z,66.70
2017-12-13T21:45:30.115Z,66.80
2017-12-13T21:47:57.684Z,66.70
2017-12-13T21:50:25.186Z,66.80
2017-12-13T21:52:52.742Z,66.80
2017-12-13T21:55:20.336Z,66.80
2017-12-13T21:57:48.702Z,66.80
2017-12-13T22:00:16.213Z,66.70
2017-12-13T22:02:43.746Z,67.10
2017-12-13T22:05:11.246Z,66.80
2017-12-13T22:07:38.791Z,66.80
2017-12-13T22:10:06.454Z,66.80
2017-12-13T22:12:33.982Z,67.60
2017-12-13T22:15:01.490Z,66.90
2017-12-13T22:17:29.054Z,66.80
2017-12-13T22:19:56.554Z,66.80
2017-12-13T22:22:24.834Z,66.80
2017-12-13T22:24:53.131Z,66.80
2017-12-13T22:27:20.625Z,66.80
2017-12-13T22:29:48.122Z,66.80
2017-12-13T22:32:16.449Z,66.90
2017-12-13T22:34:43.947Z,66.90
2017-12-13T22:37:11.478Z,66.90
2017-12-13T22:39:39.037Z,66.90
2017-12-13T22:42:06.566Z,66.90
2017-12-13T22:44:34.066Z,66.90
2017-12-13T22:47:01.622Z,66.90
2017-12-13T22:49:29.148Z,66.90
2017-12-13T22:51:56.954Z,66.90
2017-12-13T22:54:24.526Z,66.90
2017-12-13T22:56:52.052Z,66.90
2017-12-13T22:59:19.562Z,67.00
2017-12-13T23:01:47.855Z,67.00
2017-12-13T23:04:15.374Z,66.90
2017-12-13T23:06:42.873Z,67.00
2017-12-13T23:09:10.429Z,66.90
2017-12-13T23:11:37.962Z,67.00
2017-12-13T23:14:06.229Z,67.00
2017-12-13T23:16:33.786Z,67.00
2017-12-13T23:19:07.540Z,67.00
2017-12-13T23:21:36.061Z,67.00
2017-12-13T23:24:03.582Z,67.10
2017-12-13T23:26:31.134Z,67.10
2017-12-13T23:28:58.693Z,67.10
2017-12-13T23:31:26.214Z,67.20
2017-12-13T23:33:53.714Z,67.10
2017-12-13T23:36:21.641Z,67.10
2017-12-13T23:38:49.929Z,67.20
2017-12-13T23:41:17.446Z,67.00
2017-12-13T23:43:45.000Z,67.10
2017-12-13T23:46:12.526Z,67.00
2017-12-13T23:48:40.830Z,67.00
2017-12-13T23:51:08.366Z,67.00
2017-12-13T23:53:35.866Z,67.70
2017-12-13T23:56:03.441Z,67.00
2017-12-13T23:58:30.985Z,66.90
